sensor_id;sensor_type;location;lat;lon;timestamp;pressure;altitude;pressure_sealevel;temperature;humidity
36524;BME280;66329;46.796;9.824;2023-02-03T00:02:05;85449.70;;;25.58;5.90
36524;BME280;66329;46.796;9.824;2023-02-03T00:04:32;85452.44;;;25.04;5.93
36524;BME280;66329;46.796;9.824;2023-02-03T00:06:59;85453.46;;;25.54;5.92
36524;BME280;66329;46.796;9.824;2023-02-03T00:09:27;85450.50;;;25.08;5.89
36524;BME280;66329;46.796;9.824;2023-02-03T00:11:53;85449.15;;;25.12;5.87
36524;BME280;66329;46.796;9.824;2023-02-03T00:14:21;85444.85;;;25.15;5.86
36524;BME280;66329;46.796;9.824;2023-02-03T00:16:48;85441.89;;;25.20;5.82
36524;BME280;66329;46.796;9.824;2023-02-03T00:19:15;85438.57;;;25.18;5.80
36524;BME280;66329;46.796;9.824;2023-02-03T00:21:42;85440.56;;;25.18;5.81
36524;BME280;66329;46.796;9.824;2023-02-03T00:24:10;85442.30;;;25.20;5.78
36524;BME280;66329;46.796;9.824;2023-02-03T00:26:40;85448.78;;;25.71;5.78
36524;BME280;66329;46.796;9.824;2023-02-03T00:29:08;85449.25;;;25.16;5.79
36524;BME280;66329;46.796;9.824;2023-02-03T00:31:35;85448.10;;;25.65;5.77
36524;BME280;66329;46.796;9.824;2023-02-03T00:34:03;85447.71;;;25.14;5.76
36524;BME280;66329;46.796;9.824;2023-02-03T00:36:30;85458.16;;;25.11;5.76
36524;BME280;66329;46.796;9.824;2023-02-03T00:38:59;85445.78;;;25.64;5.76
36524;BME280;66329;46.796;9.824;2023-02-03T00:41:29;85445.73;;;25.14;5.77
36524;BME280;66329;46.796;9.824;2023-02-03T00:43:57;85445.92;;;25.12;5.78
36524;BME280;66329;46.796;9.824;2023-02-03T00:46:25;85440.45;;;25.62;5.72
36524;BME280;66329;46.796;9.824;2023-02-03T00:48:52;85450.58;;;25.69;5.71
36524;BME280;66329;46.796;9.824;2023-02-03T00:51:19;85448.73;;;25.19;5.72
36524;BME280;66329;46.796;9.824;2023-02-03T00:53:46;85450.34;;;25.17;5.71
36524;BME280;66329;46.796;9.824;2023-02-03T00:56:13;85455.12;;;25.64;5.71
36524;BME280;66329;46.796;9.824;2023-02-03T00:58:41;85455.99;;;25.16;5.67
36524;BME280;66329;46.796;9.824;2023-02-03T01:01:08;85452.11;;;25.15;5.68
36524;BME280;66329;46.796;9.824;2023-02-03T01:03:36;85459.23;;;25.15;5.67
36524;BME280;66329;46.796;9.824;2023-02-03T01:06:13;85453.36;;;25.20;5.62
36524;BME280;66329;46.796;9.824;2023-02-03T01:08:41;85456.76;;;25.15;5.63
36524;BME280;66329;46.796;9.824;2023-02-03T01:11:10;85466.01;;;25.09;5.66
36524;BME280;66329;46.796;9.824;2023-02-03T01:13:39;85463.07;;;25.14;5.61
36524;BME280;66329;46.796;9.824;2023-02-03T01:16:08;85469.55;;;25.13;5.61
36524;BME280;66329;46.796;9.824;2023-02-03T01:18:37;85465.89;;;25.58;5.60
36524;BME280;66329;46.796;9.824;2023-02-03T01:21:07;85470.74;;;25.98;5.61
36524;BME280;66329;46.796;9.824;2023-02-03T01:23:35;85459.48;;;25.06;5.62
36524;BME280;66329;46.796;9.824;2023-02-03T01:26:04;85456.63;;;25.03;5.62
36524;BME280;66329;46.796;9.824;2023-02-03T01:28:38;85470.52;;;25.52;5.62
36524;BME280;66329;46.796;9.824;2023-02-03T01:31:12;85467.11;;;25.07;5.61
36524;BME280;66329;46.796;9.824;2023-02-03T01:33:40;85477.76;;;25.57;5.60
36524;BME280;66329;46.796;9.824;2023-02-03T01:36:09;85471.35;;;25.07;5.59
36524;BME280;66329;46.796;9.824;2023-02-03T01:38:38;85474.41;;;26.02;5.58
36524;BME280;66329;46.796;9.824;2023-02-03T01:41:09;85471.68;;;25.65;5.56
36524;BME280;66329;46.796;9.824;2023-02-03T01:43:39;85475.32;;;25.14;5.57
36524;BME280;66329;46.796;9.824;2023-02-03T01:46:20;85477.36;;;25.65;5.55
36524;BME280;66329;46.796;9.824;2023-02-03T01:48:51;85475.07;;;26.01;5.56
36524;BME280;66329;46.796;9.824;2023-02-03T01:51:20;85476.17;;;26.02;5.57
36524;BME280;66329;46.796;9.824;2023-02-03T01:53:50;85483.06;;;26.02;5.57
36524;BME280;66329;46.796;9.824;2023-02-03T01:56:20;85483.55;;;25.58;5.56
36524;BME280;66329;46.796;9.824;2023-02-03T01:58:50;85486.07;;;25.07;5.55
36524;BME280;66329;46.796;9.824;2023-02-03T02:01:19;85482.53;;;26.02;5.56
36524;BME280;66329;46.796;9.824;2023-02-03T02:03:51;85486.91;;;25.56;5.57
36524;BME280;66329;46.796;9.824;2023-02-03T02:06:24;85485.77;;;25.07;5.55
36524;BME280;66329;46.796;9.824;2023-02-03T02:08:53;85484.09;;;25.99;5.54
36524;BME280;66329;46.796;9.824;2023-02-03T02:11:22;85487.47;;;25.11;5.54
36524;BME280;66329;46.796;9.824;2023-02-03T02:13:51;85484.48;;;25.13;5.52
36524;BME280;66329;46.796;9.824;2023-02-03T02:16:27;85483.06;;;25.17;5.50
36524;BME280;66329;46.796;9.824;2023-02-03T02:19:29;85478.64;;;25.09;5.52
36524;BME280;66329;46.796;9.824;2023-02-03T02:22:09;85485.49;;;25.01;5.56
36524;BME280;66329;46.796;9.824;2023-02-03T02:25:35;85487.81;;;25.54;5.54
36524;BME280;66329;46.796;9.824;2023-02-03T02:28:28;85491.13;;;24.88;5.59
36524;BME280;66329;46.796;9.824;2023-02-03T02:31:15;85496.40;;;25.39;5.57
36524;BME280;66329;46.796;9.824;2023-02-03T02:33:53;85504.33;;;24.87;5.58
36524;BME280;66329;46.796;9.824;2023-02-03T02:36:29;85511.39;;;25.43;5.55
36524;BME280;66329;46.796;9.824;2023-02-03T02:39:03;85510.13;;;25.45;5.55
36524;BME280;66329;46.796;9.824;2023-02-03T02:41:38;85512.70;;;24.97;5.56
36524;BME280;66329;46.796;9.824;2023-02-03T02:44:11;85512.85;;;25.50;5.55
36524;BME280;66329;46.796;9.824;2023-02-03T02:46:43;85519.67;;;25.00;5.61
36524;BME280;66329;46.796;9.824;2023-02-03T02:49:18;85516.87;;;25.55;5.54
36524;BME280;66329;46.796;9.824;2023-02-03T02:51:50;85516.14;;;25.57;5.51
36524;BME280;66329;46.796;9.824;2023-02-03T02:54:22;85517.27;;;25.56;5.51
36524;BME280;66329;46.796;9.824;2023-02-03T02:56:52;85515.13;;;25.07;5.53
36524;BME280;66329;46.796;9.824;2023-02-03T02:59:27;85522.54;;;25.05;5.52
36524;BME280;66329;46.796;9.824;2023-02-03T03:01:55;85525.81;;;25.04;5.52
36524;BME280;66329;46.796;9.824;2023-02-03T03:04:25;85524.98;;;25.98;5.50
36524;BME280;66329;46.796;9.824;2023-02-03T03:06:57;85526.52;;;25.09;5.49
36524;BME280;66329;46.796;9.824;2023-02-03T03:09:29;85537.67;;;25.06;5.53
36524;BME280;66329;46.796;9.824;2023-02-03T03:12:03;85542.11;;;25.04;5.52
36524;BME280;66329;46.796;9.824;2023-02-03T03:14:33;85549.24;;;25.02;5.52
36524;BME280;66329;46.796;9.824;2023-02-03T03:17:05;85543.34;;;25.05;5.52
36524;BME280;66329;46.796;9.824;2023-02-03T03:19:36;85538.83;;;25.07;5.49
36524;BME280;66329;46.796;9.824;2023-02-03T03:22:08;85532.04;;;25.07;5.48
36524;BME280;66329;46.796;9.824;2023-02-03T03:24:40;85527.19;;;25.09;5.49
36524;BME280;66329;46.796;9.824;2023-02-03T03:27:17;85534.80;;;25.07;5.49
36524;BME280;66329;46.796;9.824;2023-02-03T03:29:49;85534.39;;;25.48;5.52
36524;BME280;66329;46.796;9.824;2023-02-03T03:32:19;85533.99;;;25.01;5.51
36524;BME280;66329;46.796;9.824;2023-02-03T03:34:48;85535.78;;;25.04;5.48
36524;BME280;66329;46.796;9.824;2023-02-03T03:37:19;85532.52;;;25.03;5.47
36524;BME280;66329;46.796;9.824;2023-02-03T03:39:53;85532.16;;;25.95;5.48
36524;BME280;66329;46.796;9.824;2023-02-03T03:42:23;85535.75;;;25.03;5.49
36524;BME280;66329;46.796;9.824;2023-02-03T03:44:57;85531.90;;;25.01;5.46
36524;BME280;66329;46.796;9.824;2023-02-03T03:47:29;85525.60;;;25.50;5.49
36524;BME280;66329;46.796;9.824;2023-02-03T03:50:00;85531.40;;;25.04;5.48
36524;BME280;66329;46.796;9.824;2023-02-03T03:52:31;85536.94;;;25.05;5.45
36524;BME280;66329;46.796;9.824;2023-02-03T03:55:02;85532.34;;;25.07;5.47
36524;BME280;66329;46.796;9.824;2023-02-03T03:57:34;85530.38;;;25.56;5.44
36524;BME280;66329;46.796;9.824;2023-02-03T04:00:05;85532.93;;;25.61;5.45
36524;BME280;66329;46.796;9.824;2023-02-03T04:02:34;85537.21;;;25.60;5.44
36524;BME280;66329;46.796;9.824;2023-02-03T04:05:03;85543.87;;;25.61;5.46
36524;BME280;66329;46.796;9.824;2023-02-03T04:07:41;85541.14;;;25.11;5.43
36524;BME280;66329;46.796;9.824;2023-02-03T04:10:17;85539.36;;;25.07;5.44
36524;BME280;66329;46.796;9.824;2023-02-03T04:12:47;85531.39;;;25.56;5.45
36524;BME280;66329;46.796;9.824;2023-02-03T04:15:15;85516.21;;;25.97;5.45
36524;BME280;66329;46.796;9.824;2023-02-03T04:17:43;85504.24;;;25.03;5.45
36524;BME280;66329;46.796;9.824;2023-02-03T04:20:11;85500.78;;;25.01;5.51
36524;BME280;66329;46.796;9.824;2023-02-03T04:22:38;85504.33;;;25.55;5.46
36524;BME280;66329;46.796;9.824;2023-02-03T04:25:06;85518.73;;;25.02;5.45
36524;BME280;66329;46.796;9.824;2023-02-03T04:27:34;85528.16;;;25.49;5.43
36524;BME280;66329;46.796;9.824;2023-02-03T04:30:02;85535.03;;;25.00;5.45
36524;BME280;66329;46.796;9.824;2023-02-03T04:32:30;85530.82;;;25.00;5.42
36524;BME280;66329;46.796;9.824;2023-02-03T04:34:58;85534.20;;;24.98;5.43
36524;BME280;66329;46.796;9.824;2023-02-03T04:37:25;85552.28;;;24.96;5.43
36524;BME280;66329;46.796;9.824;2023-02-03T04:39:53;85556.24;;;25.89;5.41
36524;BME280;66329;46.796;9.824;2023-02-03T04:42:21;85554.57;;;24.92;5.43
36524;BME280;66329;46.796;9.824;2023-02-03T04:44:49;85555.11;;;25.89;5.41
36524;BME280;66329;46.796;9.824;2023-02-03T04:47:18;85554.08;;;25.89;5.39
36524;BME280;66329;46.796;9.824;2023-02-03T04:49:45;85546.29;;;24.97;5.39
36524;BME280;66329;46.796;9.824;2023-02-03T04:52:13;85541.13;;;24.99;5.39
36524;BME280;66329;46.796;9.824;2023-02-03T04:54:40;85531.66;;;24.92;5.41
36524;BME280;66329;46.796;9.824;2023-02-03T04:57:08;85530.66;;;25.39;5.40
36524;BME280;66329;46.796;9.824;2023-02-03T04:59:35;85526.63;;;25.38;5.41
36524;BME280;66329;46.796;9.824;2023-02-03T05:02:03;85528.08;;;24.86;5.39
36524;BME280;66329;46.796;9.824;2023-02-03T05:04:30;85530.86;;;25.39;5.35
36524;BME280;66329;46.796;9.824;2023-02-03T05:06:57;85514.93;;;24.85;5.38
36524;BME280;66329;46.796;9.824;2023-02-03T05:09:25;85509.73;;;24.84;5.37
36524;BME280;66329;46.796;9.824;2023-02-03T05:11:53;85500.50;;;25.35;5.36
36524;BME280;66329;46.796;9.824;2023-02-03T05:14:21;85499.64;;;25.83;5.35
36524;BME280;66329;46.796;9.824;2023-02-03T05:16:48;85500.92;;;24.94;5.31
36524;BME280;66329;46.796;9.824;2023-02-03T05:19:15;85509.42;;;25.89;5.31
36524;BME280;66329;46.796;9.824;2023-02-03T05:21:42;85494.95;;;25.82;5.31
36524;BME280;66329;46.796;9.824;2023-02-03T05:24:09;85493.15;;;24.88;5.33
36524;BME280;66329;46.796;9.824;2023-02-03T05:26:36;85496.23;;;25.80;5.29
36524;BME280;66329;46.796;9.824;2023-02-03T05:29:04;85490.58;;;24.88;5.36
36524;BME280;66329;46.796;9.824;2023-02-03T05:31:31;85487.60;;;25.40;5.38
36524;BME280;66329;46.796;9.824;2023-02-03T05:33:59;85488.57;;;25.87;5.31
36524;BME280;66329;46.796;9.824;2023-02-03T05:36:26;85483.43;;;25.85;5.31
36524;BME280;66329;46.796;9.824;2023-02-03T05:38:53;85486.11;;;25.84;5.25
36524;BME280;66329;46.796;9.824;2023-02-03T05:41:21;85494.30;;;25.38;5.33
36524;BME280;66329;46.796;9.824;2023-02-03T05:43:48;85502.14;;;25.80;5.34
36524;BME280;66329;46.796;9.824;2023-02-03T05:46:15;85504.42;;;24.90;5.28
36524;BME280;66329;46.796;9.824;2023-02-03T05:48:43;85500.12;;;25.81;5.27
36524;BME280;66329;46.796;9.824;2023-02-03T05:51:11;85506.87;;;25.45;5.29
36524;BME280;66329;46.796;9.824;2023-02-03T05:53:39;85499.39;;;24.96;5.19
36524;BME280;66329;46.796;9.824;2023-02-03T05:56:06;85508.38;;;24.95;5.19
36524;BME280;66329;46.796;9.824;2023-02-03T05:58:33;85509.69;;;25.89;5.28
36524;BME280;66329;46.796;9.824;2023-02-03T06:01:00;85530.35;;;25.38;5.23
36524;BME280;66329;46.796;9.824;2023-02-03T06:03:28;85531.72;;;25.48;5.08
36524;BME280;66329;46.796;9.824;2023-02-03T06:05:55;85525.22;;;24.95;5.19
36524;BME280;66329;46.796;9.824;2023-02-03T06:08:23;85517.35;;;24.97;5.28
36524;BME280;66329;46.796;9.824;2023-02-03T06:10:50;85541.24;;;25.56;5.06
36524;BME280;66329;46.796;9.824;2023-02-03T06:13:17;85543.92;;;25.54;5.16
36524;BME280;66329;46.796;9.824;2023-02-03T06:15:44;85538.38;;;25.58;5.05
36524;BME280;66329;46.796;9.824;2023-02-03T06:18:11;85552.37;;;26.00;5.29
36524;BME280;66329;46.796;9.824;2023-02-03T06:20:38;85548.23;;;25.55;5.14
36524;BME280;66329;46.796;9.824;2023-02-03T06:23:05;85558.48;;;25.07;5.33
36524;BME280;66329;46.796;9.824;2023-02-03T06:25:33;85565.59;;;25.59;5.31
36524;BME280;66329;46.796;9.824;2023-02-03T06:28:00;85573.41;;;24.77;5.49
36524;BME280;66329;46.796;9.824;2023-02-03T06:30:27;85563.37;;;25.21;6.34
36524;BME280;66329;46.796;9.824;2023-02-03T06:32:54;85558.39;;;25.66;6.12
36524;BME280;66329;46.796;9.824;2023-02-03T06:35:21;85565.89;;;25.77;5.97
36524;BME280;66329;46.796;9.824;2023-02-03T06:37:48;85578.14;;;24.91;6.07
36524;BME280;66329;46.796;9.824;2023-02-03T06:40:15;85573.24;;;25.88;6.30
36524;BME280;66329;46.796;9.824;2023-02-03T06:42:44;85568.68;;;25.01;6.44
36524;BME280;66329;46.796;9.824;2023-02-03T06:45:11;85562.75;;;26.02;6.48
36524;BME280;66329;46.796;9.824;2023-02-03T06:47:39;85554.90;;;25.21;6.50
36524;BME280;66329;46.796;9.824;2023-02-03T06:50:08;85561.81;;;25.55;6.23
36524;BME280;66329;46.796;9.824;2023-02-03T06:52:35;85559.90;;;25.21;6.72
36524;BME280;66329;46.796;9.824;2023-02-03T06:55:10;85554.15;;;25.36;6.74
36524;BME280;66329;46.796;9.824;2023-02-03T06:57:51;85553.81;;;25.36;6.88
36524;BME280;66329;46.796;9.824;2023-02-03T07:00:19;85544.11;;;25.33;6.97
36524;BME280;66329;46.796;9.824;2023-02-03T07:02:53;85545.55;;;25.93;6.75
36524;BME280;66329;46.796;9.824;2023-02-03T07:05:22;85543.65;;;25.42;6.88
36524;BME280;66329;46.796;9.824;2023-02-03T07:07:51;85542.54;;;25.91;6.88
36524;BME280;66329;46.796;9.824;2023-02-03T07:10:18;85546.34;;;26.33;6.77
36524;BME280;66329;46.796;9.824;2023-02-03T07:12:45;85537.76;;;25.90;6.80
36524;BME280;66329;46.796;9.824;2023-02-03T07:15:12;85540.54;;;26.01;6.67
36524;BME280;66329;46.796;9.824;2023-02-03T07:17:39;85537.61;;;25.47;6.70
36524;BME280;66329;46.796;9.824;2023-02-03T07:20:07;85530.30;;;24.99;6.69
36524;BME280;66329;46.796;9.824;2023-02-03T07:22:35;85533.38;;;25.23;6.61
36524;BME280;66329;46.796;9.824;2023-02-03T07:25:02;85525.66;;;25.65;6.55
36524;BME280;66329;46.796;9.824;2023-02-03T07:27:29;85533.04;;;25.93;6.59
36524;BME280;66329;46.796;9.824;2023-02-03T07:29:56;85540.51;;;25.59;6.56
36524;BME280;66329;46.796;9.824;2023-02-03T07:32:23;85545.10;;;25.12;6.69
36524;BME280;66329;46.796;9.824;2023-02-03T07:34:50;85543.65;;;25.86;6.81
36524;BME280;66329;46.796;9.824;2023-02-03T07:37:17;85540.27;;;25.05;6.78
36524;BME280;66329;46.796;9.824;2023-02-03T07:39:45;85542.68;;;25.12;6.82
36524;BME280;66329;46.796;9.824;2023-02-03T07:42:12;85550.59;;;25.22;6.81
36524;BME280;66329;46.796;9.824;2023-02-03T07:44:39;85551.17;;;25.17;6.69
36524;BME280;66329;46.796;9.824;2023-02-03T07:47:06;85554.59;;;25.22;6.93
36524;BME280;66329;46.796;9.824;2023-02-03T07:49:34;85538.43;;;25.33;6.96
36524;BME280;66329;46.796;9.824;2023-02-03T07:52:01;85548.20;;;24.97;6.98
36524;BME280;66329;46.796;9.824;2023-02-03T07:54:28;85546.77;;;25.44;6.91
36524;BME280;66329;46.796;9.824;2023-02-03T07:56:55;85553.14;;;25.49;7.00
36524;BME280;66329;46.796;9.824;2023-02-03T07:59:23;85554.08;;;25.52;7.01
36524;BME280;66329;46.796;9.824;2023-02-03T08:01:50;85563.82;;;25.58;7.01
36524;BME280;66329;46.796;9.824;2023-02-03T08:04:17;85564.39;;;25.52;6.99
36524;BME280;66329;46.796;9.824;2023-02-03T08:06:47;85573.24;;;24.71;6.80
36524;BME280;66329;46.796;9.824;2023-02-03T08:09:14;85568.17;;;25.21;6.82
36524;BME280;66329;46.796;9.824;2023-02-03T08:11:42;85565.77;;;25.38;6.79
36524;BME280;66329;46.796;9.824;2023-02-03T08:14:10;85567.53;;;25.36;6.83
36524;BME280;66329;46.796;9.824;2023-02-03T08:16:38;85564.13;;;25.04;6.62
36524;BME280;66329;46.796;9.824;2023-02-03T08:19:05;85574.03;;;25.54;6.72
36524;BME280;66329;46.796;9.824;2023-02-03T08:21:32;85570.68;;;25.59;6.61
36524;BME280;66329;46.796;9.824;2023-02-03T08:23:59;85577.04;;;25.63;6.63
36524;BME280;66329;46.796;9.824;2023-02-03T08:26:26;85585.53;;;25.65;6.56
36524;BME280;66329;46.796;9.824;2023-02-03T08:28:54;85585.39;;;26.54;6.66
36524;BME280;66329;46.796;9.824;2023-02-03T08:31:22;85577.96;;;25.61;6.65
36524;BME280;66329;46.796;9.824;2023-02-03T08:33:49;85581.42;;;25.62;6.75
36524;BME280;66329;46.796;9.824;2023-02-03T08:36:16;85588.86;;;25.64;6.70
36524;BME280;66329;46.796;9.824;2023-02-03T08:38:43;85595.49;;;25.59;6.82
36524;BME280;66329;46.796;9.824;2023-02-03T08:41:12;85598.16;;;25.65;6.76
36524;BME280;66329;46.796;9.824;2023-02-03T08:43:40;85588.79;;;25.64;6.80
36524;BME280;66329;46.796;9.824;2023-02-03T08:46:09;85591.77;;;25.66;6.78
36524;BME280;66329;46.796;9.824;2023-02-03T08:48:37;85590.12;;;25.66;6.73
36524;BME280;66329;46.796;9.824;2023-02-03T08:51:09;85587.70;;;25.67;6.94
36524;BME280;66329;46.796;9.824;2023-02-03T08:53:37;85584.83;;;25.55;6.83
36524;BME280;66329;46.796;9.824;2023-02-03T08:56:06;85588.31;;;25.47;6.85
36524;BME280;66329;46.796;9.824;2023-02-03T08:58:33;85593.72;;;25.30;6.95
36524;BME280;66329;46.796;9.824;2023-02-03T09:01:07;85594.27;;;25.70;7.03
36524;BME280;66329;46.796;9.824;2023-02-03T09:03:42;85589.70;;;25.25;6.81
36524;BME280;66329;46.796;9.824;2023-02-03T09:06:10;85585.91;;;25.51;6.51
36524;BME280;66329;46.796;9.824;2023-02-03T09:08:38;85593.22;;;25.61;6.37
36524;BME280;66329;46.796;9.824;2023-02-03T09:11:08;85592.79;;;25.54;6.20
36524;BME280;66329;46.796;9.824;2023-02-03T09:13:35;85595.46;;;25.24;6.57
36524;BME280;66329;46.796;9.824;2023-02-03T09:16:02;85588.34;;;25.22;6.59
36524;BME280;66329;46.796;9.824;2023-02-03T09:18:30;85578.15;;;24.83;6.55
36524;BME280;66329;46.796;9.824;2023-02-03T09:21:01;85584.15;;;24.88;6.51
36524;BME280;66329;46.796;9.824;2023-02-03T09:23:28;85578.71;;;25.44;6.76
36524;BME280;66329;46.796;9.824;2023-02-03T09:25:55;85572.01;;;25.50;6.91
36524;BME280;66329;46.796;9.824;2023-02-03T09:28:27;85580.80;;;25.10;6.97
36524;BME280;66329;46.796;9.824;2023-02-03T09:30:57;85575.13;;;25.71;7.18
36524;BME280;66329;46.796;9.824;2023-02-03T09:33:25;85574.29;;;25.31;7.20
36524;BME280;66329;46.796;9.824;2023-02-03T09:35:53;85579.18;;;25.39;7.27
36524;BME280;66329;46.796;9.824;2023-02-03T09:38:20;85573.41;;;25.54;7.36
36524;BME280;66329;46.796;9.824;2023-02-03T09:40:51;85574.15;;;25.19;7.37
36524;BME280;66329;46.796;9.824;2023-02-03T09:43:29;85578.27;;;25.65;7.47
36524;BME280;66329;46.796;9.824;2023-02-03T09:46:01;85575.87;;;25.65;7.52
36524;BME280;66329;46.796;9.824;2023-02-03T09:48:33;85573.20;;;25.79;7.49
36524;BME280;66329;46.796;9.824;2023-02-03T09:51:02;85574.76;;;25.86;7.56
36524;BME280;66329;46.796;9.824;2023-02-03T09:53:34;85570.41;;;25.84;7.41
36524;BME280;66329;46.796;9.824;2023-02-03T09:56:03;85570.07;;;25.57;7.29
36524;BME280;66329;46.796;9.824;2023-02-03T09:58:33;85578.18;;;25.33;7.42
36524;BME280;66329;46.796;9.824;2023-02-03T10:01:02;85560.45;;;25.65;7.23
36524;BME280;66329;46.796;9.824;2023-02-03T11:14:16;85490.08;;;24.25;6.61
36524;BME280;66329;46.796;9.824;2023-02-03T11:16:42;85485.24;;;23.01;6.19
36524;BME280;66329;46.796;9.824;2023-02-03T11:19:15;85476.75;;;24.11;5.75
36524;BME280;66329;46.796;9.824;2023-02-03T11:21:46;85472.85;;;26.15;5.74
36524;BME280;66329;46.796;9.824;2023-02-03T11:24:18;85469.91;;;25.91;5.92
36524;BME280;66329;46.796;9.824;2023-02-03T11:26:48;85465.93;;;26.01;6.00
36524;BME280;66329;46.796;9.824;2023-02-03T11:29:21;85469.28;;;25.75;6.08
36524;BME280;66329;46.796;9.824;2023-02-03T11:31:50;85462.99;;;26.03;6.12
36524;BME280;66329;46.796;9.824;2023-02-03T11:34:23;85450.04;;;25.86;6.17
36524;BME280;66329;46.796;9.824;2023-02-03T11:36:51;85451.58;;;25.78;6.16
36524;BME280;66329;46.796;9.824;2023-02-03T11:39:24;85454.09;;;26.16;6.18
36524;BME280;66329;46.796;9.824;2023-02-03T11:41:52;85454.83;;;25.59;6.17
36524;BME280;66329;46.796;9.824;2023-02-03T11:44:22;85453.96;;;25.14;6.19
36524;BME280;66329;46.796;9.824;2023-02-03T11:46:52;85449.23;;;25.52;6.22
36524;BME280;66329;46.796;9.824;2023-02-03T11:49:40;85447.65;;;26.07;6.26
36524;BME280;66329;46.796;9.824;2023-02-03T11:52:25;85437.87;;;25.57;6.32
36524;BME280;66329;46.796;9.824;2023-02-03T11:55:05;85436.46;;;25.57;6.37
36524;BME280;66329;46.796;9.824;2023-02-03T11:57:43;85429.85;;;26.03;6.42
36524;BME280;66329;46.796;9.824;2023-02-03T12:00:23;85425.04;;;25.09;6.29
36524;BME280;66329;46.796;9.824;2023-02-03T12:03:16;85419.84;;;25.52;6.21
36524;BME280;66329;46.796;9.824;2023-02-03T12:06:03;85425.66;;;25.55;6.27
36524;BME280;66329;46.796;9.824;2023-02-03T12:08:44;85426.49;;;25.37;6.37
36524;BME280;66329;46.796;9.824;2023-02-03T12:11:27;85420.66;;;25.56;6.35
36524;BME280;66329;46.796;9.824;2023-02-03T12:14:12;85428.89;;;25.59;6.44
36524;BME280;66329;46.796;9.824;2023-02-03T12:17:03;85432.69;;;25.57;6.52
36524;BME280;66329;46.796;9.824;2023-02-03T12:19:43;85434.03;;;25.66;6.56
36524;BME280;66329;46.796;9.824;2023-02-03T12:22:20;85433.83;;;25.67;6.63
36524;BME280;66329;46.796;9.824;2023-02-03T12:24:58;85430.18;;;25.70;6.68
36524;BME280;66329;46.796;9.824;2023-02-03T12:27:39;85414.94;;;26.10;6.76
36524;BME280;66329;46.796;9.824;2023-02-03T12:30:11;85414.36;;;26.69;6.84
36524;BME280;66329;46.796;9.824;2023-02-03T12:32:45;85417.43;;;26.55;6.67
36524;BME280;66329;46.796;9.824;2023-02-03T12:35:19;85415.17;;;26.41;6.63
36524;BME280;66329;46.796;9.824;2023-02-03T12:37:55;85412.66;;;25.96;6.63
36524;BME280;66329;46.796;9.824;2023-02-03T12:40:32;85412.54;;;25.93;6.59
36524;BME280;66329;46.796;9.824;2023-02-03T12:43:14;85407.16;;;25.94;6.52
36524;BME280;66329;46.796;9.824;2023-02-03T12:45:48;85406.04;;;26.32;6.48
36524;BME280;66329;46.796;9.824;2023-02-03T12:48:20;85403.19;;;26.17;6.61
36524;BME280;66329;46.796;9.824;2023-02-03T12:50:51;85397.69;;;26.28;6.71
36524;BME280;66329;46.796;9.824;2023-02-03T12:53:24;85396.55;;;25.41;6.65
36524;BME280;66329;46.796;9.824;2023-02-03T12:56:05;85396.71;;;26.03;6.90
36524;BME280;66329;46.796;9.824;2023-02-03T12:58:36;85395.05;;;26.09;7.53
36524;BME280;66329;46.796;9.824;2023-02-03T13:01:08;85393.72;;;25.31;7.23
36524;BME280;66329;46.796;9.824;2023-02-03T13:03:43;85394.98;;;25.95;7.09
36524;BME280;66329;46.796;9.824;2023-02-03T13:06:16;85394.04;;;26.07;7.36
36524;BME280;66329;46.796;9.824;2023-02-03T13:08:51;85388.60;;;25.75;7.70
36524;BME280;66329;46.796;9.824;2023-02-03T13:11:25;85388.34;;;26.76;7.82
36524;BME280;66329;46.796;9.824;2023-02-03T13:13:57;85395.91;;;26.24;7.92
36524;BME280;66329;46.796;9.824;2023-02-03T13:16:32;85394.96;;;26.29;7.89
36524;BME280;66329;46.796;9.824;2023-02-03T13:19:05;85397.54;;;25.94;8.04
36524;BME280;66329;46.796;9.824;2023-02-03T13:21:35;85399.54;;;26.82;8.08
36524;BME280;66329;46.796;9.824;2023-02-03T13:24:03;85395.86;;;25.86;8.05
36524;BME280;66329;46.796;9.824;2023-02-03T13:26:46;85392.28;;;25.63;8.19
36524;BME280;66329;46.796;9.824;2023-02-03T13:29:31;85390.18;;;26.95;8.31
36524;BME280;66329;46.796;9.824;2023-02-03T13:32:13;85379.72;;;25.67;8.36
36524;BME280;66329;46.796;9.824;2023-02-03T13:35:05;85370.65;;;25.76;8.27
36524;BME280;66329;46.796;9.824;2023-02-03T13:37:56;85364.84;;;26.31;8.52
36524;BME280;66329;46.796;9.824;2023-02-03T13:40:37;85363.19;;;26.08;8.44
36524;BME280;66329;46.796;9.824;2023-02-03T13:43:12;85357.94;;;26.00;8.46
36524;BME280;66329;46.796;9.824;2023-02-03T13:45:43;85354.25;;;25.97;8.58
36524;BME280;66329;46.796;9.824;2023-02-03T13:48:16;85350.96;;;25.29;8.43
36524;BME280;66329;46.796;9.824;2023-02-03T13:50:45;85353.32;;;25.61;8.50
36524;BME280;66329;46.796;9.824;2023-02-03T13:53:16;85359.39;;;25.72;8.71
36524;BME280;66329;46.796;9.824;2023-02-03T13:55:52;85364.30;;;25.21;9.22
36524;BME280;66329;46.796;9.824;2023-02-03T13:58:24;85368.98;;;24.78;9.47
36524;BME280;66329;46.796;9.824;2023-02-03T14:01:06;85369.19;;;24.57;9.78
36524;BME280;66329;46.796;9.824;2023-02-03T14:03:51;85367.18;;;25.31;9.93
36524;BME280;66329;46.796;9.824;2023-02-03T14:06:55;85367.23;;;24.72;10.10
36524;BME280;66329;46.796;9.824;2023-02-03T14:09:45;85369.39;;;25.14;10.13
36524;BME280;66329;46.796;9.824;2023-02-03T14:12:32;85368.12;;;24.68;10.12
36524;BME280;66329;46.796;9.824;2023-02-03T14:15:12;85367.32;;;25.17;10.14
36524;BME280;66329;46.796;9.824;2023-02-03T14:17:57;85368.78;;;25.15;9.99
36524;BME280;66329;46.796;9.824;2023-02-03T14:20:46;85366.19;;;25.13;9.95
36524;BME280;66329;46.796;9.824;2023-02-03T14:23:19;85363.04;;;25.13;10.02
36524;BME280;66329;46.796;9.824;2023-02-03T14:25:51;85361.12;;;24.19;9.81
36524;BME280;66329;46.796;9.824;2023-02-03T14:28:22;85362.78;;;25.13;9.85
36524;BME280;66329;46.796;9.824;2023-02-03T14:31:10;85366.03;;;24.62;9.69
36524;BME280;66329;46.796;9.824;2023-02-03T14:34:04;85368.12;;;25.04;9.63
36524;BME280;66329;46.796;9.824;2023-02-03T14:36:36;85369.36;;;24.66;9.93
36524;BME280;66329;46.796;9.824;2023-02-03T14:39:31;85369.69;;;24.27;9.99
36524;BME280;66329;46.796;9.824;2023-02-03T14:42:06;85371.66;;;25.21;10.17
36524;BME280;66329;46.796;9.824;2023-02-03T14:44:45;85371.30;;;24.81;10.16